Time;durP1;ratioP1;P1;durP2;ratioP2;P2;SDS_P1;SDS_P2;PMS_P1;PMS_P2;Temp;Humidity;BMP_temperature;BMP_pressure;BME280_temperature;BME280_humidity;BME280_pressure;Samples;Min_cycle;Max_cycle;Signal;HPM_P1;HPM_P2
2022/09/01 00:00:31;;;;;;;;;1.40;1.40;27.50;99.90;;;;;;4979360;28;8873;-67
2022/09/01 00:03:03;;;;;;;;;1.20;1.20;27.40;99.90;;;;;;4981063;28;8842;-67
2022/09/01 00:05:35;;;;;;;;;2.00;2.00;27.50;99.90;;;;;;4979638;28;8832;-67
2022/09/01 00:08:06;;;;;;;;;1.80;1.80;27.40;99.90;;;;;;4978069;28;8839;-64
2022/09/01 00:10:36;;;;;;;;;2.00;2.00;27.40;99.90;;;;;;4979515;28;8862;-65
2022/09/01 00:13:09;;;;;;;;;2.00;2.00;27.40;99.90;;;;;;4994746;28;9263;-71
2022/09/01 00:15:40;;;;;;;;;1.00;1.00;27.30;99.90;;;;;;4977454;28;8878;-66
2022/09/01 00:18:12;;;;;;;;;2.40;2.40;27.30;99.90;;;;;;4979243;28;8856;-67
2022/09/01 00:20:43;;;;;;;;;4.00;4.00;27.20;99.90;;;;;;4994187;28;8936;-65
2022/09/01 00:23:14;;;;;;;;;3.00;3.00;27.10;99.90;;;;;;4993764;28;9013;-66
2022/09/01 00:25:45;;;;;;;;;1.80;1.80;27.10;99.90;;;;;;4979392;28;8858;-66
2022/09/01 00:28:16;;;;;;;;;2.00;2.00;27.10;99.90;;;;;;4976823;28;8858;-66
2022/09/01 00:30:48;;;;;;;;;1.60;1.60;27.10;99.90;;;;;;4981344;28;8874;-66
2022/09/01 00:33:22;;;;;;;;;1.80;1.80;27.00;99.90;;;;;;4981998;28;8865;-67
2022/09/01 00:35:52;;;;;;;;;1.00;1.00;27.00;99.90;;;;;;4979782;28;8873;-69
2022/09/01 00:38:24;;;;;;;;;1.00;1.00;26.90;99.90;;;;;;4984172;28;8831;-69
2022/09/01 00:40:54;;;;;;;;;2.00;2.00;26.80;99.90;;;;;;4997784;28;8863;-68
2022/09/01 00:43:37;;;;;;;;;1.00;1.00;26.80;99.90;;;;;;4977681;28;8874;-67
2022/09/01 00:46:16;;;;;;;;;1.00;1.00;26.80;99.90;;;;;;4979590;28;8867;-67
2022/09/01 00:49:01;;;;;;;;;1.00;1.00;26.80;99.90;;;;;;4977996;28;9661;-69
2022/09/01 00:51:33;;;;;;;;;1.00;1.00;26.70;99.90;;;;;;4976354;28;8877;-68
2022/09/01 00:54:07;;;;;;;;;2.60;2.60;26.70;99.90;;;;;;4978856;28;8859;-66
2022/09/01 00:56:41;;;;;;;;;2.00;2.00;26.70;99.90;;;;;;4978853;28;8877;-66
2022/09/01 00:59:21;;;;;;;;;2.60;2.60;26.60;99.90;;;;;;4992714;28;9001;-66
2022/09/01 01:01:56;;;;;;;;;2.00;2.00;26.60;99.90;;;;;;4975482;28;8846;-66
2022/09/01 01:04:29;;;;;;;;;4.20;4.20;26.50;99.90;;;;;;4979452;28;8900;-65
2022/09/01 01:07:02;;;;;;;;;3.20;3.20;26.50;99.90;;;;;;4975382;28;8846;-66
2022/09/01 01:09:39;;;;;;;;;3.60;3.60;26.50;99.90;;;;;;4981591;28;8906;-64
2022/09/01 01:12:17;;;;;;;;;3.80;3.80;26.50;99.90;;;;;;4976751;28;8861;-64
2022/09/01 01:14:58;;;;;;;;;2.60;2.60;26.40;99.90;;;;;;4974413;28;9577;-66
2022/09/01 01:17:28;;;;;;;;;2.00;2.00;26.40;99.90;;;;;;4994735;28;8866;-67
2022/09/01 01:23:06;;;;;;;;;1.00;1.00;26.40;99.90;;;;;;4971872;28;9124;-65
2022/09/01 01:25:45;;;;;;;;;0.00;0.00;26.20;99.90;;;;;;4990476;28;9599;-67
2022/09/01 01:28:20;;;;;;;;;2.00;2.00;26.40;99.90;;;;;;4975028;28;8874;-65
2022/09/01 01:31:04;;;;;;;;;1.20;1.20;26.30;99.90;;;;;;4992856;28;9001;-66
2022/09/01 01:33:46;;;;;;;;;0.40;0.40;26.30;99.90;;;;;;4993676;28;8890;-67
2022/09/01 01:36:40;;;;;;;;;0.00;0.00;26.20;99.90;;;;;;4976009;28;8830;-68
2022/09/01 01:39:25;;;;;;;;;0.00;0.00;26.10;99.90;;;;;;4975623;28;8885;-66
2022/09/01 01:42:01;;;;;;;;;0.00;0.00;25.80;99.90;;;;;;4989663;28;8894;-68
2022/09/01 01:44:34;;;;;;;;;0.00;0.00;25.70;99.90;;;;;;5007259;28;8863;-68
2022/09/01 01:47:11;;;;;;;;;3.40;2.00;25.50;99.90;;;;;;4977145;28;8849;-68
2022/09/01 01:49:45;;;;;;;;;5.00;4.20;25.10;99.90;;;;;;4989763;28;8830;-68
2022/09/01 01:52:23;;;;;;;;;1.00;1.00;24.80;99.90;;;;;;4976557;28;8857;-68
2022/09/01 01:54:56;;;;;;;;;0.60;0.60;24.70;99.90;;;;;;4991290;28;10118;-69
2022/09/01 01:57:38;;;;;;;;;2.00;2.00;24.70;99.90;;;;;;4980801;28;8867;-68
2022/09/01 02:00:20;;;;;;;;;3.00;1.00;24.50;99.90;;;;;;4976023;28;8850;-69
2022/09/01 02:02:59;;;;;;;;;2.00;2.00;24.40;99.90;;;;;;4995036;28;8862;-67
2022/09/01 02:05:33;;;;;;;;;1.00;1.00;24.30;99.90;;;;;;4978242;28;8850;-67
2022/09/01 02:08:11;;;;;;;;;0.00;0.00;24.20;99.90;;;;;;4978967;28;8850;-68
2022/09/01 02:10:52;;;;;;;;;1.00;1.00;24.20;99.90;;;;;;4977137;28;8842;-68
2022/09/01 02:13:33;;;;;;;;;0.00;0.00;24.10;99.90;;;;;;4989555;28;8873;-68
2022/09/01 02:16:11;;;;;;;;;1.00;1.00;24.20;99.90;;;;;;4977462;28;8847;-68
2022/09/01 02:18:50;;;;;;;;;0.00;0.00;24.20;99.90;;;;;;4983026;28;8844;-68
2022/09/01 02:21:26;;;;;;;;;1.00;1.00;24.00;99.90;;;;;;4993381;28;8855;-67
2022/09/01 02:24:10;;;;;;;;;1.00;1.00;24.00;99.90;;;;;;4965053;28;8893;-68
2022/09/01 02:26:44;;;;;;;;;0.80;0.80;24.10;99.90;;;;;;4993750;28;8850;-67
2022/09/01 02:29:20;;;;;;;;;0.00;0.00;24.00;99.90;;;;;;4993581;28;8881;-68
2022/09/01 02:31:52;;;;;;;;;0.00;0.00;24.10;99.90;;;;;;4978056;28;8878;-68
2022/09/01 02:34:26;;;;;;;;;0.00;0.00;23.90;99.90;;;;;;4962472;28;8847;-69
2022/09/01 02:37:00;;;;;;;;;2.80;0.60;23.70;99.90;;;;;;4989250;28;9478;-68
2022/09/01 02:39:32;;;;;;;;;0.00;0.00;23.70;99.90;;;;;;4975763;28;8847;-68
2022/09/01 02:42:03;;;;;;;;;0.00;0.00;23.90;99.90;;;;;;4978207;28;8854;-68
2022/09/01 02:44:35;;;;;;;;;0.00;0.00;23.90;99.90;;;;;;4975406;28;8883;-68
2022/09/01 02:47:09;;;;;;;;;1.20;1.20;23.80;99.90;;;;;;4977436;28;8863;-69
2022/09/01 02:49:41;;;;;;;;;0.00;0.00;23.70;99.90;;;;;;4976912;28;8874;-68
2022/09/01 02:52:14;;;;;;;;;1.00;1.00;23.70;99.90;;;;;;4992997;28;8866;-67
2022/09/01 02:54:45;;;;;;;;;1.00;1.00;23.70;99.90;;;;;;4994739;28;8915;-68
2022/09/01 02:57:21;;;;;;;;;1.00;1.00;23.60;99.90;;;;;;4992559;28;8894;-68
2022/09/01 02:59:57;;;;;;;;;1.00;1.00;23.60;99.90;;;;;;4991532;28;8877;-68
2022/09/01 03:02:32;;;;;;;;;1.00;1.00;23.60;99.90;;;;;;4976840;28;8889;-69
2022/09/01 03:05:06;;;;;;;;;0.00;0.00;23.60;99.90;;;;;;4998046;28;8888;-68
2022/09/01 03:07:36;;;;;;;;;1.00;1.00;23.50;99.90;;;;;;4974144;28;8856;-67
2022/09/01 03:10:08;;;;;;;;;0.20;0.20;23.60;99.90;;;;;;4990989;28;9631;-72
2022/09/01 03:12:40;;;;;;;;;0.00;0.00;23.60;99.90;;;;;;4974809;28;8851;-68
2022/09/01 03:15:12;;;;;;;;;0.00;0.00;23.80;99.90;;;;;;4975584;28;8877;-68
2022/09/01 03:17:44;;;;;;;;;0.20;0.20;23.90;99.90;;;;;;4958752;28;8873;-68
2022/09/01 03:20:18;;;;;;;;;0.00;0.00;23.80;99.90;;;;;;4975027;28;8885;-68
2022/09/01 03:22:51;;;;;;;;;1.00;1.00;23.80;99.90;;;;;;4973768;28;8874;-66
2022/09/01 03:25:23;;;;;;;;;0.80;0.80;23.70;99.90;;;;;;4992211;28;8843;-67
2022/09/01 03:27:58;;;;;;;;;0.20;0.20;23.70;99.90;;;;;;4974772;28;9927;-68
2022/09/01 03:30:39;;;;;;;;;1.00;1.00;23.90;99.90;;;;;;4974160;28;9533;-67
2022/09/01 03:33:11;;;;;;;;;1.00;1.00;24.10;99.90;;;;;;4983005;28;8909;-68
2022/09/01 03:35:42;;;;;;;;;1.00;1.00;24.10;99.90;;;;;;4982383;28;8985;-66
2022/09/01 03:38:23;;;;;;;;;1.00;1.00;24.20;99.90;;;;;;4980812;28;8917;-66
2022/09/01 03:41:00;;;;;;;;;2.20;2.20;24.10;99.90;;;;;;4978277;28;8838;-69
2022/09/01 03:43:33;;;;;;;;;2.50;2.50;24.10;99.90;;;;;;4963947;28;8997;-67
2022/09/01 03:46:08;;;;;;;;;35.75;31.75;24.10;99.90;;;;;;4994606;28;9630;-69
2022/09/01 03:48:39;;;;;;;;;22.75;21.75;24.10;99.90;;;;;;4997571;28;8866;-68
2022/09/01 03:51:13;;;;;;;;;6.50;6.00;24.00;99.90;;;;;;4951554;28;8891;-68
2022/09/01 03:53:46;;;;;;;;;4.25;4.25;23.80;99.90;;;;;;4962201;28;8873;-66
2022/09/01 03:56:16;;;;;;;;;2.00;2.00;23.80;99.90;;;;;;4972383;28;8855;-66
2022/09/01 03:58:50;;;;;;;;;1.20;1.20;23.70;99.90;;;;;;4941749;28;8870;-68
2022/09/01 04:01:23;;;;;;;;;0.80;0.80;23.70;99.90;;;;;;4988777;28;8839;-68
2022/09/01 04:03:56;;;;;;;;;1.00;1.00;23.80;99.90;;;;;;4976547;28;8919;-67
2022/09/01 04:06:32;;;;;;;;;2.00;2.00;23.90;99.90;;;;;;4973905;28;9178;-67
2022/09/01 04:09:04;;;;;;;;;1.00;1.00;23.70;99.90;;;;;;4965052;28;8898;-68
2022/09/01 04:11:38;;;;;;;;;2.00;2.00;23.70;99.90;;;;;;4978311;28;8850;-68
2022/09/01 04:14:17;;;;;;;;;1.00;1.00;23.90;99.90;;;;;;4977175;28;8882;-67
2022/09/01 04:19:41;;;;;;;;;1.40;1.40;23.90;99.90;;;;;;4959729;28;9029;-66
2022/09/01 04:22:12;;;;;;;;;0.60;0.60;23.90;99.90;;;;;;4979739;28;8855;-66
2022/09/01 04:24:45;;;;;;;;;1.00;1.00;23.70;99.90;;;;;;4989399;28;9612;-65
2022/09/01 04:27:23;;;;;;;;;1.25;1.25;23.80;99.90;;;;;;4973361;28;8846;-66
2022/09/01 04:29:55;;;;;;;;;1.00;1.00;23.90;99.90;;;;;;4991329;28;8889;-67
2022/09/01 04:32:34;;;;;;;;;0.00;0.00;23.80;99.90;;;;;;4981326;28;8871;-66
2022/09/01 04:35:07;;;;;;;;;1.00;1.00;23.70;99.90;;;;;;4993471;28;8897;-66
2022/09/01 04:37:37;;;;;;;;;1.00;1.00;23.70;99.90;;;;;;4995866;28;8903;-65
2022/09/01 04:40:13;;;;;;;;;1.00;1.00;23.70;99.90;;;;;;4977927;28;8872;-66
2022/09/01 04:42:43;;;;;;;;;1.60;0.80;23.60;99.90;;;;;;4979437;28;8877;-66
2022/09/01 04:45:14;;;;;;;;;2.20;1.00;23.60;99.90;;;;;;4964608;28;8885;-66
2022/09/01 04:47:51;;;;;;;;;1.00;1.00;23.50;99.90;;;;;;4976538;28;8888;-65
2022/09/01 04:50:22;;;;;;;;;0.20;0.20;23.50;99.90;;;;;;4977376;28;9657;-66
2022/09/01 04:53:12;;;;;;;;;0.80;0.80;23.60;99.90;;;;;;4979955;28;9051;-66
2022/09/01 04:55:47;;;;;;;;;1.00;1.00;23.60;99.90;;;;;;4975530;28;8841;-66
2022/09/01 04:58:20;;;;;;;;;0.00;0.00;23.50;99.90;;;;;;4970875;28;8881;-66
2022/09/01 05:00:51;;;;;;;;;0.00;0.00;23.50;99.90;;;;;;4974252;28;9255;-65
2022/09/01 05:03:23;;;;;;;;;1.00;1.00;23.50;99.90;;;;;;4991350;28;8850;-66
2022/09/01 05:06:18;;;;;;;;;0.00;0.00;23.50;99.90;;;;;;4985008;28;8815;-66
2022/09/01 05:08:52;;;;;;;;;0.00;0.00;23.50;99.90;;;;;;4976185;28;8869;-65
2022/09/01 05:11:43;;;;;;;;;0.00;0.00;23.40;99.90;;;;;;4991826;28;8854;-65
2022/09/01 05:14:23;;;;;;;;;0.00;0.00;23.30;99.90;;;;;;4974585;28;8870;-67
2022/09/01 05:16:58;;;;;;;;;1.00;1.00;23.40;99.90;;;;;;4977382;28;9577;-67
2022/09/01 05:19:31;;;;;;;;;1.00;1.00;23.40;99.90;;;;;;4977442;28;8881;-65
2022/09/01 05:22:03;;;;;;;;;1.00;1.00;23.30;99.90;;;;;;4996891;28;8835;-65
2022/09/01 05:24:34;;;;;;;;;1.00;1.00;23.30;99.90;;;;;;4991675;28;8851;-68
2022/09/01 05:27:13;;;;;;;;;0.40;0.40;23.40;99.90;;;;;;5010305;28;8822;-66
2022/09/01 05:29:49;;;;;;;;;1.00;1.00;23.40;99.90;;;;;;4977855;28;8878;-66
2022/09/01 05:32:24;;;;;;;;;0.60;0.40;23.40;99.90;;;;;;4995727;28;8915;-67
2022/09/01 05:34:55;;;;;;;;;0.00;0.00;23.50;99.90;;;;;;4974723;28;8892;-69
2022/09/01 05:37:29;;;;;;;;;1.00;1.00;23.40;99.90;;;;;;4993846;28;8827;-66
2022/09/01 05:40:02;;;;;;;;;0.00;0.00;23.30;99.90;;;;;;4979928;28;8913;-65
2022/09/01 05:42:33;;;;;;;;;0.00;0.00;23.30;99.90;;;;;;4979141;28;8870;-67
2022/09/01 05:45:04;;;;;;;;;0.80;0.80;23.20;99.90;;;;;;4977845;28;8910;-66
2022/09/01 05:47:36;;;;;;;;;1.00;1.00;23.50;99.90;;;;;;4976770;28;9703;-65
2022/09/01 05:50:15;;;;;;;;;1.00;1.00;23.50;99.90;;;;;;4972444;28;8870;-66
2022/09/01 05:52:46;;;;;;;;;2.00;2.00;23.40;99.90;;;;;;4987923;28;8891;-65
2022/09/01 05:55:18;;;;;;;;;1.00;1.00;23.30;99.90;;;;;;4975672;28;8893;-66
2022/09/01 05:57:49;;;;;;;;;1.00;1.00;23.20;99.90;;;;;;4968877;28;9677;-68
2022/09/01 06:00:21;;;;;;;;;3.00;2.00;23.20;99.90;;;;;;4977607;28;8862;-68
2022/09/01 06:02:56;;;;;;;;;0.00;0.00;23.30;99.90;;;;;;4990849;28;8878;-66
2022/09/01 06:05:27;;;;;;;;;2.50;1.50;23.50;99.90;;;;;;4972237;28;8868;-65
2022/09/01 06:07:59;;;;;;;;;1.00;1.00;23.50;99.90;;;;;;4977406;28;8873;-67
2022/09/01 06:10:34;;;;;;;;;1.00;1.00;23.40;99.90;;;;;;4973250;28;8850;-68
2022/09/01 06:13:08;;;;;;;;;1.00;1.00;23.30;99.90;;;;;;4988365;28;9019;-66
2022/09/01 06:15:43;;;;;;;;;1.00;1.00;23.30;99.90;;;;;;4976588;28;9336;-66
2022/09/01 06:18:16;;;;;;;;;1.00;1.00;23.20;99.90;;;;;;4959158;28;8843;-65
2022/09/01 06:20:55;;;;;;;;;0.25;0.25;23.20;99.90;;;;;;4975611;28;9779;-66
2022/09/01 06:23:26;;;;;;;;;1.00;1.00;23.20;99.90;;;;;;4975838;28;8870;-66
2022/09/01 06:25:58;;;;;;;;;1.00;1.00;23.10;99.90;;;;;;4972062;28;8873;-66
2022/09/01 06:28:31;;;;;;;;;1.25;1.25;23.20;99.90;;;;;;4973926;28;8882;-66
2022/09/01 06:31:08;;;;;;;;;0.00;0.00;23.20;99.90;;;;;;4990563;28;8872;-66
2022/09/01 06:33:39;;;;;;;;;1.00;1.00;23.30;99.90;;;;;;4977912;28;8859;-65
2022/09/01 06:36:11;;;;;;;;;0.00;0.00;23.50;99.90;;;;;;4990956;28;8949;-66
2022/09/01 06:38:44;;;;;;;;;1.00;1.00;23.40;99.90;;;;;;4993732;28;8880;-66
2022/09/01 06:41:18;;;;;;;;;0.25;0.25;23.40;99.90;;;;;;4958511;28;8843;-65
2022/09/01 06:43:49;;;;;;;;;1.00;1.00;23.30;99.90;;;;;;4978964;28;8855;-66
2022/09/01 06:46:26;;;;;;;;;0.00;0.00;23.20;99.90;;;;;;4972442;28;8897;-66
2022/09/01 06:49:02;;;;;;;;;1.00;1.00;23.20;99.90;;;;;;4978571;28;8870;-67
2022/09/01 06:51:33;;;;;;;;;0.00;0.00;23.20;99.90;;;;;;4966986;28;8901;-66
2022/09/01 06:54:05;;;;;;;;;0.25;0.25;23.30;99.90;;;;;;4975682;28;8859;-65
2022/09/01 06:56:44;;;;;;;;;1.00;1.00;23.20;99.90;;;;;;4989027;28;9672;-65
2022/09/01 06:59:23;;;;;;;;;1.00;1.00;23.20;99.90;;;;;;4973250;28;8867;-67
2022/09/01 07:01:55;;;;;;;;;1.00;1.00;23.40;99.90;;;;;;4993500;28;9017;-67
2022/09/01 07:04:52;;;;;;;;;1.00;1.00;23.40;99.90;;;;;;4983685;28;8851;-67
2022/09/01 07:07:29;;;;;;;;;1.00;1.00;23.30;99.90;;;;;;5008193;28;8877;-66
2022/09/01 07:10:45;;;;;;;;;1.00;1.00;23.30;99.90;;;;;;4979885;28;9611;-66
2022/09/01 07:13:41;;;;;;;;;1.00;1.00;23.30;99.90;;;;;;4980045;28;8866;-67
2022/09/01 07:16:39;;;;;;;;;1.25;1.25;23.20;99.90;;;;;;4983117;28;8846;-66
2022/09/01 07:19:22;;;;;;;;;1.00;1.00;23.20;99.90;;;;;;4982330;28;8865;-65
2022/09/01 07:22:14;;;;;;;;;2.00;2.00;23.40;99.90;;;;;;4980413;28;8824;-66
2022/09/01 07:25:06;;;;;;;;;1.00;1.00;23.50;99.90;;;;;;4977655;28;8878;-65
2022/09/01 07:28:00;;;;;;;;;0.00;0.00;23.50;99.90;;;;;;4977528;28;8877;-66
2022/09/01 07:30:32;;;;;;;;;3.00;1.00;23.50;99.90;;;;;;4975782;28;8888;-66
2022/09/01 07:33:10;;;;;;;;;1.25;1.25;23.50;99.90;;;;;;4989871;28;8847;-65
2022/09/01 07:36:07;;;;;;;;;2.00;2.00;23.40;99.90;;;;;;4975112;28;8856;-66
2022/09/01 07:38:54;;;;;;;;;0.00;0.00;23.50;99.90;;;;;;4976018;28;8851;-67
2022/09/01 07:41:58;;;;;;;;;0.50;0.50;23.50;99.90;;;;;;4992374;28;8835;-67
2022/09/01 07:45:09;;;;;;;;;0.75;0.75;23.50;99.90;;;;;;4978939;28;9602;-66
2022/09/01 07:48:02;;;;;;;;;0.00;0.00;23.50;99.90;;;;;;4976530;28;8854;-66
2022/09/01 07:50:46;;;;;;;;;1.25;1.25;23.40;99.90;;;;;;4979226;28;8908;-66
2022/09/01 07:53:38;;;;;;;;;1.25;1.25;23.30;99.90;;;;;;4992860;28;8843;-67
2022/09/01 07:56:19;;;;;;;;;2.00;2.00;23.30;99.90;;;;;;4995268;28;8882;-68
2022/09/01 07:58:52;;;;;;;;;1.50;1.50;23.50;99.90;;;;;;4980411;28;8859;-66
2022/09/01 08:01:27;;;;;;;;;2.00;2.00;23.50;99.90;;;;;;4995714;28;8851;-66
2022/09/01 08:04:01;;;;;;;;;1.00;1.00;23.50;99.90;;;;;;4974987;28;9272;-66
2022/09/01 08:06:31;;;;;;;;;1.00;1.00;23.40;99.90;;;;;;4981369;28;8866;-66
2022/09/01 08:09:11;;;;;;;;;1.00;1.00;23.30;99.90;;;;;;4977267;28;8839;-66
2022/09/01 08:12:05;;;;;;;;;1.50;1.50;23.20;99.90;;;;;;4972022;28;8842;-66
2022/09/01 08:14:54;;;;;;;;;0.60;0.60;23.20;99.90;;;;;;5006739;28;9366;-68
2022/09/01 08:17:46;;;;;;;;;1.75;1.75;23.30;99.90;;;;;;4965787;28;8835;-66
2022/09/01 08:20:23;;;;;;;;;1.00;1.00;23.40;99.90;;;;;;4990530;28;8837;-65
2022/09/01 08:22:58;;;;;;;;;2.50;1.00;23.30;99.90;;;;;;4971509;28;8838;-66
2022/09/01 08:25:36;;;;;;;;;1.00;1.00;23.30;99.90;;;;;;4975626;28;10389;-66
2022/09/01 08:28:07;;;;;;;;;0.75;0.75;23.30;99.90;;;;;;4981101;28;8897;-67
2022/09/01 08:30:43;;;;;;;;;1.00;1.00;23.30;99.90;;;;;;4992554;28;8853;-67
2022/09/01 08:33:22;;;;;;;;;1.25;1.25;23.30;99.90;;;;;;4976669;28;9949;-66
2022/09/01 08:35:54;;;;;;;;;1.00;1.00;23.30;99.90;;;;;;4991492;28;8847;-66
2022/09/01 08:38:27;;;;;;;;;0.25;0.25;23.50;99.90;;;;;;4993075;28;8887;-68
2022/09/01 08:41:04;;;;;;;;;2.00;2.00;23.50;99.90;;;;;;4967386;28;8850;-67
2022/09/01 08:44:02;;;;;;;;;0.00;0.00;23.40;99.90;;;;;;4976081;28;8882;-67
2022/09/01 08:46:37;;;;;;;;;1.25;1.25;23.50;99.90;;;;;;4976374;28;9006;-65
2022/09/01 08:49:30;;;;;;;;;0.75;0.75;23.40;99.90;;;;;;4976745;28;8847;-65
2022/09/01 08:52:44;;;;;;;;;1.00;1.00;23.30;99.90;;;;;;4978225;28;8839;-66
2022/09/01 08:55:47;;;;;;;;;2.75;2.00;23.30;99.90;;;;;;4988458;28;8893;-66
2022/09/01 08:58:18;;;;;;;;;1.75;1.75;23.20;99.90;;;;;;4985527;28;8867;-67
2022/09/01 09:01:31;;;;;;;;;1.00;1.00;23.20;99.90;;;;;;4979351;28;8846;-67
2022/09/01 09:04:32;;;;;;;;;1.00;1.00;23.20;99.90;;;;;;4972711;28;8888;-66
2022/09/01 09:07:18;;;;;;;;;1.00;1.00;23.30;99.90;;;;;;4976712;28;8904;-66
2022/09/01 09:10:06;;;;;;;;;1.75;1.75;23.30;99.90;;;;;;4969877;28;8868;-66
2022/09/01 09:12:52;;;;;;;;;1.75;1.75;23.30;99.90;;;;;;4973256;28;8880;-66
2022/09/01 09:16:07;;;;;;;;;1.00;1.00;23.30;99.90;;;;;;4972495;28;8885;-65
2022/09/01 09:18:53;;;;;;;;;2.00;2.00;23.40;99.90;;;;;;4987060;28;8831;-65
2022/09/01 09:21:35;;;;;;;;;1.25;1.00;23.20;99.90;;;;;;4977173;28;8893;-65
2022/09/01 09:24:16;;;;;;;;;2.60;2.00;23.20;99.90;;;;;;4977558;28;8881;-66
2022/09/01 09:26:58;;;;;;;;;1.00;1.00;23.20;99.90;;;;;;4973598;28;8850;-66
2022/09/01 09:29:28;;;;;;;;;1.75;1.75;23.10;99.90;;;;;;4975758;28;8866;-67
2022/09/01 09:32:07;;;;;;;;;1.25;1.25;23.10;99.90;;;;;;4973452;28;8822;-68
2022/09/01 09:35:17;;;;;;;;;1.00;1.00;23.10;99.90;;;;;;4986648;28;8880;-65
2022/09/01 09:37:48;;;;;;;;;1.00;1.00;23.10;99.90;;;;;;4976296;28;8862;-66
2022/09/01 09:40:23;;;;;;;;;3.25;2.00;23.00;99.90;;;;;;4985384;28;8867;-66
2022/09/01 09:42:55;;;;;;;;;1.25;1.25;23.10;99.90;;;;;;4978915;28;8850;-67
2022/09/01 09:45:39;;;;;;;;;1.00;1.00;23.20;99.90;;;;;;4979659;28;8862;-67
2022/09/01 09:48:33;;;;;;;;;1.00;1.00;23.20;99.90;;;;;;4979170;28;9605;-65
2022/09/01 09:51:19;;;;;;;;;1.50;1.50;23.10;99.90;;;;;;4981529;28;8918;-65
2022/09/01 09:53:51;;;;;;;;;1.00;1.00;23.00;99.90;;;;;;4977676;28;8881;-66
2022/09/01 09:56:24;;;;;;;;;1.50;1.50;23.10;99.90;;;;;;4975131;28;9691;-66
2022/09/01 09:58:55;;;;;;;;;1.00;1.00;23.10;99.90;;;;;;4974688;28;8831;-66
2022/09/01 10:01:33;;;;;;;;;1.00;1.00;23.00;99.90;;;;;;4976265;28;8850;-65
2022/09/01 10:04:03;;;;;;;;;2.00;2.00;23.00;99.90;;;;;;4973417;28;8867;-67
2022/09/01 10:06:40;;;;;;;;;2.00;2.00;23.00;99.90;;;;;;4973039;28;8854;-66
2022/09/01 10:09:16;;;;;;;;;2.00;2.00;23.00;99.90;;;;;;4973787;28;8854;-66
2022/09/01 10:11:56;;;;;;;;;2.25;2.25;23.00;99.90;;;;;;4973693;28;9554;-65
2022/09/01 10:14:32;;;;;;;;;2.00;2.00;23.00;99.90;;;;;;4994407;28;8823;-67
2022/09/01 10:17:29;;;;;;;;;2.00;2.00;23.00;99.90;;;;;;4975078;28;9633;-66
2022/09/01 10:20:08;;;;;;;;;2.00;2.00;23.10;99.90;;;;;;4978299;28;8869;-66
2022/09/01 10:22:40;;;;;;;;;1.25;1.00;23.10;99.90;;;;;;4976200;28;8881;-66
2022/09/01 10:25:27;;;;;;;;;2.75;2.75;23.20;99.90;;;;;;4956092;28;8845;-67
2022/09/01 10:28:18;;;;;;;;;1.00;1.00;23.30;99.90;;;;;;4975076;28;8859;-67
2022/09/01 10:30:53;;;;;;;;;1.75;1.75;23.40;99.90;;;;;;4979635;28;9234;-67
2022/09/01 10:33:23;;;;;;;;;5.00;2.00;23.40;99.90;;;;;;4988064;28;8940;-66
2022/09/01 10:35:56;;;;;;;;;1.00;1.00;23.30;99.90;;;;;;4976815;28;8842;-67
2022/09/01 10:38:28;;;;;;;;;2.50;2.50;23.10;99.90;;;;;;4968911;28;8870;-67
2022/09/01 10:41:07;;;;;;;;;2.00;2.00;23.10;99.90;;;;;;4991666;28;8846;-67
2022/09/01 10:43:48;;;;;;;;;2.00;2.00;23.10;99.90;;;;;;4974672;28;8854;-66
2022/09/01 10:46:22;;;;;;;;;2.00;2.00;23.00;99.90;;;;;;4973402;28;8857;-67
2022/09/01 10:48:58;;;;;;;;;2.00;2.00;22.90;99.90;;;;;;4978287;28;8847;-66
2022/09/01 10:51:33;;;;;;;;;2.00;2.00;23.00;99.90;;;;;;4972447;28;8909;-68
2022/09/01 10:54:07;;;;;;;;;2.00;2.00;23.20;99.90;;;;;;4966404;28;8953;-67
2022/09/01 10:56:49;;;;;;;;;2.75;2.75;23.20;99.90;;;;;;4976615;28;8846;-67
2022/09/01 10:59:26;;;;;;;;;0.50;0.50;23.30;99.90;;;;;;4974607;28;8844;-67
2022/09/01 11:02:13;;;;;;;;;1.75;1.75;23.20;99.90;;;;;;4973805;28;8881;-67
2022/09/01 11:05:00;;;;;;;;;1.75;1.75;23.10;99.90;;;;;;4977447;28;8897;-66
2022/09/01 11:07:33;;;;;;;;;1.50;1.50;23.00;99.90;;;;;;4976233;28;9557;-65
2022/09/01 11:10:43;;;;;;;;;2.00;2.00;23.00;99.90;;;;;;4974827;28;8905;-66
2022/09/01 11:13:25;;;;;;;;;1.00;1.00;23.00;99.90;;;;;;4973753;28;8866;-66
2022/09/01 11:16:15;;;;;;;;;1.25;1.25;23.20;99.90;;;;;;4980601;28;8851;-67
2022/09/01 11:19:25;;;;;;;;;1.25;1.25;23.20;99.90;;;;;;4977984;28;8839;-65
2022/09/01 11:22:09;;;;;;;;;2.50;2.50;23.20;99.90;;;;;;4978558;28;8866;-65
2022/09/01 11:24:41;;;;;;;;;2.00;2.00;23.30;99.90;;;;;;4975679;28;8862;-67
2022/09/01 11:27:34;;;;;;;;;2.00;2.00;23.30;99.90;;;;;;4979515;28;8854;-67
2022/09/01 11:30:10;;;;;;;;;1.75;1.75;23.30;99.90;;;;;;4978041;28;8862;-66
2022/09/01 11:32:41;;;;;;;;;2.00;2.00;23.40;99.90;;;;;;4978483;28;8858;-66
2022/09/01 11:35:19;;;;;;;;;1.75;1.75;23.30;99.90;;;;;;4978948;28;8947;-66
2022/09/01 11:37:54;;;;;;;;;2.00;2.00;23.20;99.90;;;;;;5005996;28;8851;-66
2022/09/01 11:40:32;;;;;;;;;1.00;1.00;23.30;99.90;;;;;;4979681;28;8856;-66
2022/09/01 11:43:10;;;;;;;;;3.00;1.50;23.30;99.90;;;;;;4978761;28;9495;-66
2022/09/01 11:46:28;;;;;;;;;2.00;2.00;23.40;99.90;;;;;;4977457;28;9031;-66
2022/09/01 11:49:06;;;;;;;;;1.75;1.75;23.40;99.90;;;;;;4953815;28;8882;-66
2022/09/01 11:51:46;;;;;;;;;2.00;2.00;23.30;99.90;;;;;;4992209;28;8834;-67
2022/09/01 11:54:20;;;;;;;;;0.00;0.00;23.20;99.90;;;;;;4978259;28;9176;-67
2022/09/01 11:56:51;;;;;;;;;2.00;2.00;23.20;99.90;;;;;;4980972;28;8862;-67
2022/09/01 11:59:36;;;;;;;;;2.00;2.00;23.20;99.90;;;;;;4979747;28;8892;-66
2022/09/01 12:02:07;;;;;;;;;2.00;2.00;23.20;99.90;;;;;;4980543;28;8835;-67
2022/09/01 12:04:38;;;;;;;;;2.25;2.25;23.20;99.90;;;;;;4997588;28;8850;-66
2022/09/01 12:07:28;;;;;;;;;2.00;2.00;23.10;99.90;;;;;;4993152;28;8877;-67
2022/09/01 12:09:58;;;;;;;;;1.00;1.00;23.10;99.90;;;;;;4994152;28;8879;-66
2022/09/01 12:12:39;;;;;;;;;2.00;2.00;23.10;99.90;;;;;;4974975;28;8842;-65
2022/09/01 12:15:26;;;;;;;;;3.00;3.00;23.10;99.90;;;;;;4972088;28;8874;-66
2022/09/01 12:18:19;;;;;;;;;3.00;3.00;23.10;99.90;;;;;;4998515;28;8855;-67
2022/09/01 12:20:52;;;;;;;;;1.75;1.75;23.10;99.90;;;;;;4977832;28;8847;-67
2022/09/01 12:23:34;;;;;;;;;2.75;2.75;23.00;99.90;;;;;;4984490;28;8987;-66
2022/09/01 12:26:28;;;;;;;;;3.00;3.00;23.00;99.90;;;;;;4980724;28;8857;-66
2022/09/01 12:29:01;;;;;;;;;3.00;3.00;23.10;99.90;;;;;;4976397;28;8851;-68
2022/09/01 12:31:34;;;;;;;;;3.00;3.00;23.20;99.90;;;;;;4979829;28;8851;-67
2022/09/01 12:34:06;;;;;;;;;2.25;2.25;23.20;99.90;;;;;;4979557;28;8913;-68
2022/09/01 12:36:39;;;;;;;;;3.25;3.25;23.20;99.90;;;;;;4974556;28;8833;-67
2022/09/01 12:39:17;;;;;;;;;2.50;2.50;23.20;99.90;;;;;;4980735;28;8853;-66
2022/09/01 12:42:31;;;;;;;;;2.50;2.50;23.20;99.90;;;;;;4980853;28;8846;-67
2022/09/01 12:45:13;;;;;;;;;3.75;3.50;23.30;99.90;;;;;;5009334;28;9850;-66
2022/09/01 12:47:48;;;;;;;;;3.00;3.00;23.20;99.90;;;;;;4980269;28;8877;-67
2022/09/01 12:50:18;;;;;;;;;3.00;3.00;23.40;99.90;;;;;;4977001;28;9615;-67
2022/09/01 12:52:57;;;;;;;;;4.00;4.00;23.30;99.90;;;;;;4979539;28;8873;-66
2022/09/01 12:55:37;;;;;;;;;4.00;4.00;23.40;99.90;;;;;;4984113;28;8832;-66
2022/09/01 12:58:25;;;;;;;;;2.00;2.00;23.40;99.90;;;;;;4981579;28;8862;-66
2022/09/01 13:01:15;;;;;;;;;3.00;3.00;23.50;99.90;;;;;;4992587;28;8861;-66
2022/09/01 13:04:07;;;;;;;;;3.00;3.00;23.50;99.90;;;;;;4980642;28;8844;-67
2022/09/01 13:06:39;;;;;;;;;5.25;5.25;23.50;99.90;;;;;;4993557;28;8857;-67
2022/09/01 13:09:09;;;;;;;;;3.25;3.25;23.40;99.90;;;;;;4976112;28;8869;-67
2022/09/01 13:11:48;;;;;;;;;3.75;3.75;23.40;99.90;;;;;;4973422;28;8850;-67
2022/09/01 13:14:36;;;;;;;;;3.00;3.00;23.50;99.90;;;;;;4980517;28;9550;-67
2022/09/01 13:17:08;;;;;;;;;3.25;3.25;23.60;99.90;;;;;;4978487;28;8842;-67
2022/09/01 13:19:48;;;;;;;;;3.75;3.75;23.60;99.90;;;;;;4991548;28;8851;-66
2022/09/01 13:22:25;;;;;;;;;2.25;2.25;23.60;99.90;;;;;;4978372;28;8867;-67
2022/09/01 13:25:01;;;;;;;;;8.25;6.00;23.60;99.90;;;;;;4983605;28;8847;-67
2022/09/01 13:27:31;;;;;;;;;5.00;5.00;23.60;99.90;;;;;;4976916;28;8870;-66
2022/09/01 13:30:01;;;;;;;;;4.00;4.00;23.70;99.90;;;;;;4978220;28;8869;-66
2022/09/01 13:32:33;;;;;;;;;4.00;4.00;23.70;99.90;;;;;;4976807;28;8896;-66
2022/09/01 13:35:07;;;;;;;;;3.25;3.25;23.80;99.90;;;;;;4978886;28;8874;-66
2022/09/01 13:37:37;;;;;;;;;3.75;3.25;23.70;99.90;;;;;;4975693;28;8856;-66
2022/09/01 13:40:14;;;;;;;;;3.00;3.00;23.70;99.90;;;;;;4978818;28;8843;-66
2022/09/01 13:42:49;;;;;;;;;3.25;3.25;23.70;99.90;;;;;;4980991;28;8865;-68
2022/09/01 13:45:24;;;;;;;;;2.00;2.00;23.70;99.90;;;;;;4979309;28;9557;-67
2022/09/01 13:47:56;;;;;;;;;3.00;3.00;23.80;99.90;;;;;;4980798;28;8910;-67
2022/09/01 13:50:49;;;;;;;;;4.50;3.75;23.90;99.90;;;;;;4982895;28;8831;-67
2022/09/01 13:53:42;;;;;;;;;4.00;4.00;23.90;99.90;;;;;;4979945;28;9017;-67
2022/09/01 13:56:14;;;;;;;;;2.75;2.75;24.00;99.90;;;;;;4977060;28;8850;-67
2022/09/01 13:58:44;;;;;;;;;2.75;2.75;24.00;99.90;;;;;;4982069;28;8858;-65
2022/09/01 14:01:16;;;;;;;;;2.75;2.75;24.10;99.90;;;;;;4992465;28;8863;-66